This is the latest recevied weather packets stored in our database for station/object WB2CMF. If no packets are shown the sender has not sent any weather packets the latest 10 day(s).
| Time | Temp. | Humidity | Pressure | Rain* | Wind** | Luminosity | Snow |
|---|---|---|---|---|---|---|---|
| 1777912211 | 18.89° C | 33% | 1012.4 hPa | 0 mm | - | - | - |
| 1777901411 | 15.56° C | 36% | 1013.7 hPa | 0 mm | - | - | - |
| 1777888810 | 8.33° C | 53% | 1013.8 hPa | 0 mm | - | - | - |
| 1777879810 | 8.33° C | 51% | 1012.9 hPa | 0 mm | - | - | - |
| 1777872610 | 6.67° C | 55% | 1012.4 hPa | 0 mm | - | - | - |
| 1777869010 | 6.67° C | 48% | 1012.3 hPa | 0 mm | - | - | - |
| 1777865410 | 7.22° C | 42% | 1012.3 hPa | 0 mm | - | - | - |
| 1777858209 | 9.44° C | 34% | 1012 hPa | 0 mm | - | - | - |
| 1777852809 | 13.33° C | 21% | 1010.5 hPa | 0 mm | - | - | - |
| 1777849209 | 13.89° C | 20% | 1010.1 hPa | 0 mm | - | - | - |
| 1777840209 | 13.33° C | 24% | 1009.9 hPa | 0 mm | - | - | - |
| 1777825808 | 10.56° C | 37% | 1010.6 hPa | 0 mm | - | - | - |
| 1777822208 | 11.11° C | 36% | 1010.2 hPa | 0 mm | - | - | - |
| 1777818608 | 10° C | 40% | 1010.2 hPa | 0 mm | - | - | - |
| 1777806007 | 6.11° C | 50% | 1009.5 hPa | 0 mm | - | - | - |
| 1777771806 | 11.11° C | 62% | 1010.7 hPa | 0 mm | - | - | - |
| 1777755606 | 14.44° C | 49% | 1009.9 hPa | 0 mm | - | - | - |
| 1777748406 | 15.56° C | 47% | 1010.9 hPa | 0 mm | - | - | - |
| 1777725005 | 10.56° C | 66% | 1011.9 hPa | 0 mm | - | - | - |
| 1777714204 | 10° C | 66% | 1011.8 hPa | 0 mm | - | - | - |
| 1777701664 | 10° C | 64% | 1012.1 hPa | 0 mm | - | - | - |
| 1777694464 | 10° C | 62% | 1012.5 hPa | 0 mm | - | - | - |
| 1777690864 | 10° C | 60% | 1012.9 hPa | 0 mm | - | - | - |
| 1777687263 | 10.56° C | 57% | 1013 hPa | 0 mm | - | - | - |
| 1777680063 | 11.11° C | 55% | 1012.1 hPa | 0 mm | - | - | - |
* Rain since midnight (hover to see other rain measurements)
** Current wind speed in m/s (hover to see current wind gust speed)